• Join FlightAware (Why Join?)
  • Login
  • US Flag 
06:53AM EDT


 

Airport Tracker/Info


-or-


 

Live Flight TrackerFlight Track Log ✈ SWA16 ✈ 26-Jun-2013 ✈ KLAX - KDEN

Flight Track Log - Related Links

Times and Time Zones

All times are in EDT time to prevent confusion due to time zone crossing. See the SWA16 flight status page for this flight to view local times or setup timezone preferences in your user account.

Time Position Orientation Groundspeed Altitude Reporting Facility
EDT Latitude Longitude Course Direction KTS MPH feet Rate Location/Type
06:29PM 33.9450 -118.4514 59° Northeast 154 177 1,400  Level Los Angeles Center
06:30PM 33.9397 -118.5183 265° West 203 234 3,400 2,400 Climbing Los Angeles Center
06:31PM 33.8978 -118.5386 202° Southwest 229 264 6,400 2,880 Climbing Los Angeles Center
06:32PM 33.9186 -118.4658 71° East 246 283 9,500 2,280 Climbing Los Angeles Center
06:33PM 33.9547 -118.3967 58° Northeast 269 310 11,200 1,920 Climbing Los Angeles Center
06:34PM 34.0033 -118.3089 56° Northeast 309 356 13,500 2,160 Climbing Los Angeles Center
06:35PM 34.2331 -117.8672 59° Northeast  Level FlightAware Approximate
06:35PM 34.0611 -118.2067 56° Northeast 362 417 15,700  Level Los Angeles Center
06:36PM 34.1342 -118.0778 56° Northeast 384 442 17,200 2,040 Climbing Los Angeles Center
06:38PM 34.1986 -117.9650 55° Northeast 404 465 20,000 2,460 Climbing Los Angeles Center
06:39PM 34.2628 -117.8494 56° Northeast 411 473 22,400 1,440 Climbing Los Angeles Center
06:40PM 34.3286 -117.7311 56° Northeast 422 486 23,000 1,320 Climbing Los Angeles Center
06:41PM 34.3994 -117.6050 56° Northeast 428 493 25,200 1,860 Climbing Los Angeles Center
06:42PM 34.4656 -117.4822 57° Northeast 433 498 26,900 1,560 Climbing Los Angeles Center
06:43PM 34.5358 -117.3561 56° Northeast 449 517 28,500 1,620 Climbing Los Angeles Center
06:44PM 34.6211 -117.2008 56° Northeast 462 532 30,300 1,800 Climbing Los Angeles Center
06:45PM 34.6933 -117.0697 56° Northeast 469 540 32,300 1,800 Climbing Los Angeles Center
06:46PM 34.7633 -116.9411 56° Northeast 462 532 34,100 1,680 Climbing Los Angeles Center
06:47PM 34.8317 -116.8156 56° Northeast 450 518 35,900 1,380 Climbing Los Angeles Center
06:48PM 34.8992 -116.6906 57° Northeast 444 511 37,000 480 Climbing Los Angeles Center
06:49PM 34.9847 -116.5422 55° Northeast 448 516 37,000 240 Level Los Angeles Center
06:50PM 35.0731 -116.4350 45° Northeast 448 516 37,500 540 Climbing Los Angeles Center
06:51PM 35.1611 -116.3267 45° Northeast 449 517 38,200 720 Climbing Los Angeles Center
06:52PM 35.2519 -116.2167 45° Northeast 459 528 39,000 360 Climbing Los Angeles Center
06:53PM 35.3350 -116.1050 48° Northeast 451 519 39,000  Level Los Angeles Center
06:54PM 35.4225 -115.9958 45° Northeast 449 517 39,000  Level Los Angeles Center
06:55PM 35.4986 -115.8375 59° Northeast 443 510 39,000  Level Los Angeles Center
06:56PM 35.5531 -115.7042 63° Northeast 436 502 39,000  Level Los Angeles Center
06:57PM 35.6078 -115.5672 64° Northeast 443 510 39,000  Level Los Angeles Center
06:58PM 35.6625 -115.4303 64° Northeast 447 514 39,000  Level Los Angeles Center
06:59PM 35.7167 -115.2942 64° Northeast 447 514 39,000  Level Los Angeles Center
07:00PM 35.7817 -115.1303 64° Northeast 448 516 39,000  Level Los Angeles Center
07:01PM 35.8356 -114.9942 64° Northeast 447 514 39,000  Level Los Angeles Center
07:02PM 35.8897 -114.8567 64° Northeast 447 514 39,000  Level Los Angeles Center
07:03PM 35.9428 -114.7206 64° Northeast 445 512 39,000  Level Los Angeles Center
07:04PM 35.9981 -114.5844 63° Northeast 445 512 39,000  Level Los Angeles Center
07:05PM 36.0617 -114.4192 65° Northeast 445 512 39,000  Level Los Angeles Center
07:06PM 36.1156 -114.2822 64° Northeast 445 512 39,000  Level Los Angeles Center
07:08PM 36.1692 -114.1439 64° Northeast 447 514 39,000  Level Los Angeles Center
07:09PM 36.2233 -114.0050 64° Northeast 449 517 39,000  Level Los Angeles Center
07:10PM 36.2758 -113.8661 65° Northeast 448 516 39,000  Level Los Angeles Center
07:11PM 36.3303 -113.7272 64° Northeast 448 516 39,000  Level Los Angeles Center
07:12PM 36.3933 -113.5597 65° Northeast 449 517 39,000  Level Los Angeles Center
07:13PM 36.4478 -113.4197 64° Northeast 450 518 39,000  Level Los Angeles Center
07:14PM 36.5022 -113.2717 65° Northeast 450 518 39,000  Level Los Angeles Center
07:15PM 36.5553 -113.1319 65° Northeast 450 518 39,000  Level Los Angeles Center
07:16PM 36.6072 -112.9914 65° Northeast 449 517 39,000  Level Los Angeles Center
07:17PM 36.6600 -112.8500 65° Northeast 451 519 39,000  Level Los Angeles Center
07:18PM 36.7125 -112.7089 65° Northeast 452 520 39,000  Level Los Angeles Center
07:19PM 36.7747 -112.5400 65° Northeast 450 518 39,000  Level Los Angeles Center
07:20PM 36.8275 -112.3972 65° Northeast 454 522 39,000  Level Los Angeles Center
07:21PM 36.8792 -112.2561 65° Northeast 450 518 39,000  Level Los Angeles Center
07:22PM 36.9317 -112.1136 65° Northeast 453 521 39,000  Level Los Angeles Center
07:23PM 36.9831 -111.9706 66° East 454 522 39,000  Level Los Angeles Center
07:24PM 37.0433 -111.8000 66° East 451 519 39,000  Level Los Angeles Center
07:25PM 37.0956 -111.6575 65° Northeast 451 519 39,000  Level Los Angeles Center
07:26PM 37.1383 -111.5411 65° Northeast 454 522 39,000  Level Denver Center
07:27PM 37.1878 -111.3975 67° East 454 522 39,000  Level Denver Center
07:28PM 37.2381 -111.2533 66° East 453 521 39,000  Level Denver Center
07:29PM 37.2997 -111.0794 66° East 455 524 39,000  Level Denver Center
07:30PM 37.3503 -110.9347 66° East 455 524 39,000  Level Denver Center
07:31PM 37.4011 -110.7881 66° East 457 526 39,000  Level Denver Center
07:32PM 37.4508 -110.6419 67° East 457 526 39,000  Level Denver Center
07:33PM 37.5039 -110.4919 66° East 460 529 39,000  Level Denver Center
07:34PM 37.5589 -110.3292 67° East 454 522 39,000  Level Denver Center
07:35PM 37.6069 -110.1875 67° East 457 526 39,000  Level Denver Center
07:36PM 37.6639 -110.0233 66° East 457 526 39,000  Level Denver Center
07:37PM 37.7114 -109.8822 67° East 457 526 39,000  Level Denver Center
07:38PM 37.7672 -109.7175 67° East 457 526 39,000  Level Denver Center
07:39PM 37.8139 -109.5753 67° East 458 527 39,000  Level Denver Center
07:40PM 37.8606 -109.4350 67° East 454 522 39,000  Level Denver Center
07:41PM 37.9142 -109.2706 68° East 451 519 39,000  Level Denver Center
07:43PM 37.9608 -109.1314 67° East 448 516 39,000  Level Denver Center
07:44PM 38.0211 -108.9467 67° East 446 513 39,000  Level Denver Center
07:45PM 38.0681 -108.8047 67° East 443 510 39,000  Level Denver Center
07:46PM 38.1197 -108.6378 68° East 450 518 39,000  Level Denver Center
07:47PM 38.1653 -108.4994 67° East 445 512 39,000  Level Denver Center
07:48PM 38.2172 -108.3375 68° East 444 511 39,000  Level Denver Center
07:49PM 38.2614 -108.1981 68° East 445 512 39,000  Level Denver Center
07:50PM 38.3144 -108.0331 68° East 448 516 39,000  Level Denver Center
07:51PM 38.3583 -107.8922 68° East 448 516 39,000  Level Denver Center
07:52PM 38.4100 -107.7264 68° East 451 519 39,000 -300 Level Denver Center
07:53PM 38.4553 -107.5839 68° East 453 521 38,400 -720 Descending Denver Center
07:54PM 38.5050 -107.4747 60° Northeast 448 516 37,600 -1,020 Descending Denver Center
07:55PM 38.5847 -107.2969 60° Northeast 451 519 36,400 -1,080 Descending Denver Center
07:56PM 38.6497 -107.1522 60° Northeast 458 527 35,400 -960 Descending Denver Center
07:57PM 38.7119 -107.0097 61° Northeast 459 528 34,500 -960 Descending Denver Center
07:58PM 38.7756 -106.8667 60° Northeast 464 534 33,500 -1,020 Descending Denver Center
07:59PM 38.8522 -106.6928 60° Northeast 470 541 32,400 -1,080 Descending Denver Center
08:00PM 38.9217 -106.5400 60° Northeast 472 543 31,300 -1,020 Descending Denver Center
08:01PM 38.9847 -106.4042 59° Northeast 465 535 30,300 -1,320 Descending Denver Center
08:02PM 39.0567 -106.2472 59° Northeast 458 527 28,600 -1,800 Descending Denver Center
08:03PM 39.1197 -106.1056 60° Northeast 443 510 26,600 -1,380 Descending Denver Center
08:04PM 39.1747 -105.9814 60° Northeast 401 461 25,800 -2,100 Descending Denver Center
08:05PM 39.2292 -105.8581 60° Northeast 396 456 22,300 -2,760 Descending Denver Center
08:07PM 39.2864 -105.7281 60° Northeast 414 476 20,100 -1,680 Descending Denver Center
08:08PM 39.3400 -105.6064 60° Northeast 397 457 18,900 -1,200 Descending Denver Center
08:09PM 39.3881 -105.4953 61° Northeast 359 413 17,700 -1,500 Descending Denver Center
08:10PM 39.4514 -105.3742 56° Northeast 346 398 15,900 -1,560 Descending Denver Center
08:11PM 39.5033 -105.2758 56° Northeast 334 384 14,500 -1,140 Descending Denver Center
08:12PM 39.5619 -105.1850 50° Northeast 307 353 13,600 -780 Descending Denver Center
08:13PM 39.6392 -105.1689 North 280 322 13,000 -720 Descending Denver Center
08:14PM 39.7200 -105.1517 North 272 313 12,200 -840 Descending Denver Center
08:15PM 39.7914 -105.1364 North 261 300 11,300 -840 Descending Denver Center
08:16PM 39.8447 -105.1083 22° Northeast 224 258 10,500 -900 Descending Denver Center
08:17PM 39.8419 -105.0317 93° East 198 228 9,500 -1,020 Descending Denver Center
08:18PM 39.8419 -104.9592 90° East 200 230 8,500 -960 Descending Denver Center
08:19PM 39.8417 -104.8831 90° East 197 227 7,500 -960 Descending Denver Center
08:20PM 39.8411 -104.8147 91° East 190 219 6,500 -840 Descending Denver Center
08:21PM 39.8408 -104.7567 90° East 150 173 5,800 -600 Descending Denver Center
08:22PM 39.8403 -104.7114 91° East 141 162 5,300 -540 Descending Denver Center
08:24PM 39.8500 -104.6667 North  Level FlightAware Approximate
08:31PM 39.8617 -104.6732 North  Level Estimated
08:32PM 39.8617 -104.6732 North  Level Estimated